createdAt,value
2023-04-18T00:00:54.444Z,0.51
2023-04-18T00:01:54.546Z,0.50
2023-04-18T00:02:54.644Z,0.51
2023-04-18T00:03:54.568Z,0.52
2023-04-18T00:04:54.641Z,0.51
2023-04-18T00:05:54.544Z,0.50
2023-04-18T00:06:54.585Z,0.51
2023-04-18T00:07:54.621Z,0.51
2023-04-18T00:08:54.665Z,0.51
2023-04-18T00:09:54.650Z,0.51
2023-04-18T00:10:54.641Z,0.52
2023-04-18T00:11:54.681Z,0.51
2023-04-18T00:12:54.684Z,0.51
2023-04-18T00:13:54.701Z,0.51
2023-04-18T00:14:54.723Z,0.51
2023-04-18T00:15:54.758Z,0.50
2023-04-18T00:16:54.785Z,0.51
2023-04-18T00:17:54.827Z,0.51
2023-04-18T00:18:54.810Z,0.50
2023-04-18T00:19:54.852Z,0.50
2023-04-18T00:20:54.861Z,0.50
2023-04-18T00:21:54.874Z,0.50
2023-04-18T00:22:54.897Z,0.50
2023-04-18T00:23:54.952Z,0.52
2023-04-18T00:24:54.955Z,0.51
2023-04-18T00:25:54.957Z,0.50
2023-04-18T00:26:54.968Z,0.51
2023-04-18T00:27:54.987Z,0.51
2023-04-18T00:28:55.013Z,0.51
2023-04-18T00:29:55.036Z,0.51
2023-04-18T00:30:55.126Z,0.51
2023-04-18T00:31:55.103Z,0.51
2023-04-18T00:32:55.134Z,0.51
2023-04-18T00:33:55.129Z,0.51
2023-04-18T00:34:55.157Z,0.51
2023-04-18T00:35:55.182Z,0.51
2023-04-18T00:36:55.179Z,0.51
2023-04-18T00:37:55.245Z,0.51
2023-04-18T00:38:55.240Z,0.51
2023-04-18T00:39:55.309Z,0.51
2023-04-18T00:40:55.313Z,0.51
2023-04-18T00:41:55.342Z,0.51
2023-04-18T00:42:55.354Z,0.51
2023-04-18T00:43:55.364Z,0.52
2023-04-18T00:44:55.384Z,0.51
2023-04-18T00:45:55.458Z,0.50
2023-04-18T00:46:55.427Z,0.51
2023-04-18T00:47:55.546Z,0.50
2023-04-18T00:48:55.524Z,0.50
2023-04-18T00:49:55.521Z,0.50
2023-04-18T00:50:55.533Z,0.51
2023-04-18T00:51:55.588Z,0.51
2023-04-18T00:52:55.578Z,0.51
2023-04-18T00:53:55.617Z,0.51
2023-04-18T00:54:55.700Z,0.51
2023-04-18T00:55:55.658Z,0.50
2023-04-18T00:56:55.689Z,0.50
2023-04-18T00:57:55.727Z,0.51
2023-04-18T00:58:55.724Z,0.50
2023-04-18T00:59:55.770Z,0.50
2023-04-18T01:00:55.790Z,0.51
2023-04-18T01:01:55.958Z,0.51
2023-04-18T01:02:56.061Z,0.51
2023-04-18T01:03:55.955Z,0.51
2023-04-18T01:04:55.908Z,0.52
2023-04-18T01:05:55.940Z,0.51
2023-04-18T01:06:55.941Z,0.50
2023-04-18T01:07:55.973Z,0.51
2023-04-18T01:08:56.015Z,0.51
2023-04-18T01:09:56.049Z,0.50
2023-04-18T01:10:56.080Z,0.51
2023-04-18T01:11:56.098Z,0.51
2023-04-18T01:12:56.129Z,0.51
2023-04-18T01:13:56.134Z,0.51
2023-04-18T01:14:56.201Z,0.51
2023-04-18T01:15:56.249Z,0.51
2023-04-18T01:16:56.245Z,0.51
2023-04-18T01:17:56.291Z,0.51
2023-04-18T01:18:56.302Z,0.51
2023-04-18T01:19:56.301Z,0.51
2023-04-18T01:20:56.350Z,0.52
2023-04-18T01:21:56.370Z,0.52
2023-04-18T01:22:56.386Z,0.52
2023-04-18T01:23:56.448Z,0.51
2023-04-18T01:24:56.480Z,0.51
2023-04-18T01:25:57.178Z,0.51
2023-04-18T01:26:56.521Z,0.51
2023-04-18T01:27:56.550Z,0.51
2023-04-18T01:28:56.556Z,0.50
2023-04-18T01:29:56.594Z,0.50
2023-04-18T01:30:56.663Z,0.51
2023-04-18T01:31:56.650Z,0.52
2023-04-18T01:32:56.688Z,0.51
2023-04-18T01:33:56.691Z,0.51
2023-04-18T01:34:56.745Z,0.51
2023-04-18T01:35:56.765Z,0.51
2023-04-18T01:36:56.814Z,0.52
2023-04-18T01:37:56.871Z,0.51
2023-04-18T01:38:56.884Z,0.51
2023-04-18T01:39:56.885Z,0.50
2023-04-18T01:40:56.916Z,0.51
2023-04-18T01:41:56.941Z,0.51
2023-04-18T01:42:57.061Z,0.51
2023-04-18T01:43:57.036Z,0.52
2023-04-18T01:44:57.053Z,0.50
2023-04-18T01:45:57.077Z,0.51
2023-04-18T01:46:57.194Z,0.50
2023-04-18T01:47:57.202Z,0.51
2023-04-18T01:48:57.210Z,0.51
2023-04-18T01:49:57.234Z,0.51
2023-04-18T01:50:57.237Z,0.50
2023-04-18T01:51:57.284Z,0.51
2023-04-18T01:52:57.301Z,0.51
2023-04-18T01:53:57.341Z,0.51
2023-04-18T01:54:57.397Z,0.50
2023-04-18T01:55:57.400Z,0.51
2023-04-18T01:56:57.427Z,0.51
2023-04-18T01:57:57.477Z,0.51
2023-04-18T01:58:57.513Z,0.51
2023-04-18T01:59:57.538Z,0.51
2023-04-18T02:00:57.679Z,0.51
2023-04-18T02:01:57.679Z,0.51
2023-04-18T02:02:57.787Z,0.51
2023-04-18T02:03:57.792Z,0.52
2023-04-18T02:04:57.713Z,0.51
2023-04-18T02:05:57.764Z,0.52
2023-04-18T02:06:57.778Z,0.52
2023-04-18T02:07:57.900Z,0.51
2023-04-18T02:08:57.828Z,0.51
2023-04-18T02:09:57.897Z,0.51
2023-04-18T02:10:57.929Z,0.51
2023-04-18T02:11:57.948Z,0.51
2023-04-18T02:12:57.986Z,0.51
2023-04-18T02:13:58.007Z,0.52
2023-04-18T02:14:58.022Z,0.51
2023-04-18T02:15:58.119Z,0.51
2023-04-18T02:16:58.181Z,0.50
2023-04-18T02:17:58.143Z,0.52
2023-04-18T02:18:58.173Z,0.50
2023-04-18T02:19:58.202Z,0.51
2023-04-18T02:20:58.229Z,0.51
2023-04-18T02:21:58.244Z,0.50
2023-04-18T02:22:58.274Z,0.51
2023-04-18T02:23:58.338Z,0.51
2023-04-18T02:24:58.358Z,0.51
2023-04-18T02:25:58.388Z,0.50
2023-04-18T02:26:58.440Z,0.50
2023-04-18T02:27:58.461Z,0.51
2023-04-18T02:28:58.501Z,0.51
2023-04-18T02:29:58.546Z,0.51
2023-04-18T02:30:58.574Z,0.52
2023-04-18T02:31:58.643Z,0.51
2023-04-18T02:32:58.713Z,0.52
2023-04-18T02:33:58.675Z,0.50
2023-04-18T02:34:58.706Z,0.51
2023-04-18T02:35:58.746Z,0.52
2023-04-18T02:36:58.784Z,0.52
2023-04-18T02:37:58.818Z,0.51
2023-04-18T02:38:58.832Z,0.51
2023-04-18T02:39:58.905Z,0.51
2023-04-18T02:40:58.906Z,0.51
2023-04-18T02:41:58.951Z,0.51
2023-04-18T02:42:59.002Z,0.50
2023-04-18T02:43:59.012Z,0.51
2023-04-18T02:44:59.051Z,0.51
2023-04-18T02:45:59.082Z,0.51
2023-04-18T02:46:59.131Z,0.51
2023-04-18T02:47:59.265Z,0.51
2023-04-18T02:48:59.201Z,0.51
2023-04-18T02:49:59.244Z,0.51
2023-04-18T02:50:59.238Z,0.50
2023-04-18T02:51:59.302Z,0.51
2023-04-18T02:52:59.313Z,0.51
2023-04-18T02:53:59.366Z,0.52
2023-04-18T02:54:59.397Z,0.50
2023-04-18T02:55:59.438Z,0.51
2023-04-18T02:56:59.468Z,0.51
2023-04-18T02:57:59.488Z,0.50
2023-04-18T02:58:59.517Z,0.51
2023-04-18T02:59:59.561Z,0.52
2023-04-18T03:00:59.666Z,0.52
2023-04-18T03:01:59.661Z,0.52
2023-04-18T03:02:59.858Z,0.52
2023-04-18T03:03:59.698Z,0.51
2023-04-18T03:04:59.778Z,0.50
2023-04-18T03:05:59.772Z,0.53
2023-04-18T03:06:59.810Z,0.51
2023-04-18T03:07:59.841Z,0.52
2023-04-18T03:08:59.907Z,0.52
2023-04-18T03:09:59.947Z,0.52
2023-04-18T03:11:00.000Z,0.50
2023-04-18T03:12:00.063Z,0.51
2023-04-18T03:13:00.015Z,0.52
2023-04-18T03:14:00.074Z,0.53
2023-04-18T03:15:00.106Z,0.52
2023-04-18T03:16:00.234Z,0.51
2023-04-18T03:17:00.199Z,0.51
2023-04-18T03:18:00.290Z,0.50
2023-04-18T03:19:00.242Z,0.50
2023-04-18T03:20:00.316Z,0.51
2023-04-18T03:21:00.323Z,0.52
2023-04-18T03:22:00.351Z,0.50
2023-04-18T03:23:00.429Z,0.50
2023-04-18T03:24:00.483Z,0.51
2023-04-18T03:25:00.474Z,0.51
2023-04-18T03:26:00.540Z,0.52
2023-04-18T03:27:00.522Z,0.51
2023-04-18T03:28:00.575Z,0.51
2023-04-18T03:29:00.619Z,0.51
2023-04-18T03:30:00.658Z,0.51
2023-04-18T03:31:00.703Z,0.51
2023-04-18T03:32:00.844Z,0.52
2023-04-18T03:33:00.807Z,0.51
2023-04-18T03:34:00.809Z,0.50
2023-04-18T03:35:00.854Z,0.50
2023-04-18T03:36:00.825Z,0.50
2023-04-18T03:37:00.882Z,0.50
2023-04-18T03:38:00.930Z,0.52
2023-04-18T03:39:00.987Z,0.51
2023-04-18T03:40:00.999Z,0.50
2023-04-18T03:41:01.039Z,0.52
2023-04-18T03:42:01.080Z,0.51
2023-04-18T03:43:01.134Z,0.51
2023-04-18T03:44:01.156Z,0.50
2023-04-18T03:45:01.171Z,0.51
2023-04-18T03:46:01.302Z,0.52
2023-04-18T03:47:01.287Z,0.52
2023-04-18T03:48:01.358Z,0.52
2023-04-18T03:49:01.414Z,0.51
2023-04-18T03:50:01.327Z,0.51
2023-04-18T03:51:01.398Z,0.51
2023-04-18T03:52:01.419Z,0.51
2023-04-18T03:53:01.492Z,0.51
2023-04-18T03:54:01.520Z,0.51
2023-04-18T03:55:01.584Z,0.51
2023-04-18T03:56:01.624Z,0.51
2023-04-18T03:57:01.615Z,0.51
2023-04-18T03:58:01.695Z,0.51
2023-04-18T03:59:01.679Z,0.52
2023-04-18T04:00:01.831Z,0.51
2023-04-18T04:01:01.825Z,0.51
2023-04-18T04:02:01.990Z,0.51
2023-04-18T04:03:02.110Z,0.51
2023-04-18T04:04:02.073Z,0.51
2023-04-18T04:05:01.991Z,0.51
2023-04-18T04:06:02.006Z,0.52
2023-04-18T04:07:02.114Z,0.51
2023-04-18T04:08:02.208Z,0.50
2023-04-18T04:09:02.139Z,0.52
2023-04-18T04:10:02.152Z,0.50
2023-04-18T04:11:02.177Z,0.51
2023-04-18T04:12:02.204Z,0.51
2023-04-18T04:13:02.249Z,0.51
2023-04-18T04:14:02.315Z,0.51
2023-04-18T04:15:02.350Z,0.51
2023-04-18T04:16:02.418Z,0.52
2023-04-18T04:17:02.420Z,0.51
2023-04-18T04:18:02.497Z,0.52
2023-04-18T04:19:02.458Z,0.51
2023-04-18T04:20:02.540Z,0.50
2023-04-18T04:21:02.578Z,0.51
2023-04-18T04:22:02.627Z,0.51
2023-04-18T04:23:02.644Z,0.51
2023-04-18T04:24:02.687Z,0.52
2023-04-18T04:25:02.714Z,0.51
2023-04-18T04:26:02.747Z,0.51
2023-04-18T04:27:02.824Z,0.51
2023-04-18T04:28:02.917Z,0.51
2023-04-18T04:29:02.886Z,0.50
2023-04-18T04:30:02.924Z,0.51
2023-04-18T04:31:02.946Z,0.52
2023-04-18T04:32:03.019Z,0.50
2023-04-18T04:33:03.035Z,0.51
2023-04-18T04:34:03.067Z,0.51
2023-04-18T04:35:03.102Z,0.51
2023-04-18T04:36:03.188Z,0.52
2023-04-18T04:37:03.191Z,0.51
2023-04-18T04:38:03.266Z,0.51
2023-04-18T04:39:03.286Z,0.51
2023-04-18T04:40:03.320Z,0.51
2023-04-18T04:41:03.368Z,0.51
2023-04-18T04:42:03.387Z,0.51
2023-04-18T04:43:03.436Z,0.51
2023-04-18T04:44:03.487Z,0.51
2023-04-18T04:45:03.570Z,0.50
2023-04-18T04:46:03.604Z,0.51
2023-04-18T04:47:03.599Z,0.51
2023-04-18T04:48:03.722Z,0.51
2023-04-18T04:49:03.723Z,0.51
2023-04-18T04:50:03.769Z,0.51
2023-04-18T04:51:03.762Z,0.51
2023-04-18T04:52:03.815Z,0.51
2023-04-18T04:53:03.891Z,0.51
2023-04-18T04:54:03.902Z,0.52
2023-04-18T04:55:03.965Z,0.51
2023-04-18T04:56:04.006Z,0.51
2023-04-18T04:57:04.079Z,0.51
2023-04-18T04:58:04.128Z,0.51
2023-04-18T04:59:04.179Z,0.51
2023-04-18T05:00:04.273Z,0.50
2023-04-18T05:01:04.376Z,0.53
2023-04-18T05:02:04.465Z,0.51
2023-04-18T05:03:04.541Z,0.52
2023-04-18T05:04:04.570Z,0.51
2023-04-18T05:05:04.543Z,0.52
2023-04-18T05:06:04.608Z,0.51
2023-04-18T05:07:04.626Z,0.52
2023-04-18T05:08:04.706Z,0.52
2023-04-18T05:09:04.748Z,0.53
2023-04-18T05:10:04.806Z,0.52
2023-04-18T05:11:04.895Z,0.51
2023-04-18T05:12:04.938Z,0.51
2023-04-18T05:13:05.010Z,0.51
2023-04-18T05:14:05.013Z,0.51
2023-04-18T05:15:05.087Z,0.51
2023-04-18T05:16:05.126Z,0.51
2023-04-18T05:17:05.243Z,0.51
2023-04-18T05:18:05.354Z,0.51
2023-04-18T05:19:05.350Z,0.51
2023-04-18T05:20:05.404Z,0.52
2023-04-18T05:21:05.427Z,0.53
2023-04-18T05:22:05.494Z,0.52
2023-04-18T05:23:05.548Z,0.51
2023-04-18T05:24:05.630Z,0.51
2023-04-18T05:25:05.677Z,0.52
2023-04-18T05:26:05.741Z,0.52
2023-04-18T05:27:05.779Z,0.52
2023-04-18T05:28:05.832Z,0.52
2023-04-18T05:29:05.908Z,0.51
2023-04-18T05:30:05.979Z,0.52
2023-04-18T05:31:06.034Z,0.51
2023-04-18T05:32:06.136Z,0.52
2023-04-18T05:33:06.207Z,0.52
2023-04-18T05:34:06.205Z,0.51
2023-04-18T05:35:06.260Z,0.51
2023-04-18T05:36:06.315Z,0.51
2023-04-18T05:37:06.394Z,0.52
2023-04-18T05:38:06.423Z,0.53
2023-04-18T05:39:06.523Z,0.53
2023-04-18T05:40:06.848Z,0.53
2023-04-18T05:41:06.647Z,0.53
2023-04-18T05:42:06.651Z,0.53
2023-04-18T05:43:06.732Z,0.53
2023-04-18T05:44:06.763Z,0.54
2023-04-18T05:45:06.850Z,0.54
2023-04-18T05:46:06.863Z,0.55
2023-04-18T05:47:06.945Z,0.57
2023-04-18T05:48:06.901Z,0.57
2023-04-18T05:49:06.932Z,0.58
2023-04-18T05:50:06.963Z,0.63
2023-04-18T05:51:06.982Z,0.61
2023-04-18T05:52:07.017Z,0.62
2023-04-18T05:53:07.001Z,0.65
2023-04-18T05:54:07.062Z,0.65
2023-04-18T05:55:07.055Z,0.67
2023-04-18T05:56:07.085Z,0.70
2023-04-18T05:57:07.071Z,0.71
2023-04-18T05:58:07.096Z,0.75
2023-04-18T05:59:07.099Z,0.76
2023-04-18T06:00:07.068Z,0.77
2023-04-18T06:01:07.071Z,0.80
2023-04-18T06:02:07.193Z,0.80
2023-04-18T06:03:09.280Z,0.83
2023-04-18T06:04:07.200Z,0.87
2023-04-18T06:05:07.309Z,0.88
2023-04-18T06:06:07.082Z,0.91
2023-04-18T06:07:07.071Z,0.92
2023-04-18T06:08:07.179Z,0.95
2023-04-18T06:09:07.061Z,0.96
2023-04-18T06:10:07.049Z,1.01
2023-04-18T06:11:07.091Z,1.03
2023-04-18T06:12:07.024Z,1.01
2023-04-18T06:13:07.051Z,1.02
2023-04-18T06:14:07.025Z,1.08
2023-04-18T06:15:07.042Z,1.12
2023-04-18T06:16:07.050Z,1.16
2023-04-18T06:17:07.049Z,1.23
2023-04-18T06:18:07.030Z,1.28
2023-04-18T06:19:07.015Z,1.34
2023-04-18T06:20:07.321Z,1.38
2023-04-18T06:21:06.991Z,1.39
2023-04-18T06:22:06.987Z,1.45
2023-04-18T06:23:06.991Z,1.47
2023-04-18T06:24:07.085Z,1.52
2023-04-18T06:25:06.970Z,1.51
2023-04-18T06:26:06.937Z,1.55
2023-04-18T06:27:09.313Z,1.65
2023-04-18T06:28:07.985Z,1.66
2023-04-18T06:29:06.947Z,1.66
2023-04-18T06:30:06.938Z,1.67
2023-04-18T06:31:06.950Z,1.73
2023-04-18T06:32:06.919Z,1.81
2023-04-18T06:33:06.978Z,1.89
2023-04-18T06:34:06.890Z,1.99
2023-04-18T06:35:06.940Z,2.03
2023-04-18T06:36:06.865Z,2.02
2023-04-18T06:37:06.861Z,2.06
2023-04-18T06:38:06.851Z,2.07
2023-04-18T06:39:06.873Z,2.05
2023-04-18T06:40:06.906Z,2.06
2023-04-18T06:41:06.886Z,2.12
2023-04-18T06:42:06.893Z,2.15
2023-04-18T06:43:06.925Z,2.18
2023-04-18T06:44:06.968Z,2.15
2023-04-18T06:45:07.319Z,2.15
2023-04-18T06:46:07.150Z,2.16
2023-04-18T06:47:07.153Z,2.16
2023-04-18T06:48:07.224Z,2.10
2023-04-18T06:49:07.223Z,2.09
2023-04-18T06:50:07.276Z,2.08
2023-04-18T06:51:07.286Z,2.13
2023-04-18T06:52:07.354Z,2.17
2023-04-18T06:53:07.369Z,2.16
2023-04-18T06:54:07.411Z,2.21
2023-04-18T06:55:07.393Z,2.19
2023-04-18T06:56:08.411Z,2.13
2023-04-18T06:57:07.450Z,2.12
2023-04-18T06:58:07.505Z,2.18
2023-04-18T06:59:07.520Z,2.09
2023-04-18T07:00:07.570Z,2.16
2023-04-18T07:01:07.628Z,2.16
2023-04-18T07:02:07.638Z,2.20
2023-04-18T07:03:09.522Z,2.23
2023-04-18T07:04:07.727Z,2.34
2023-04-18T07:05:07.963Z,2.35
2023-04-18T07:06:07.614Z,2.39
2023-04-18T07:07:07.592Z,2.40
2023-04-18T07:08:07.566Z,2.38
2023-04-18T07:09:07.574Z,2.55
2023-04-18T07:10:07.561Z,2.55
2023-04-18T07:11:07.592Z,2.54
2023-04-18T07:12:07.559Z,2.63
2023-04-18T07:13:07.525Z,2.64
2023-04-18T07:14:07.566Z,2.75
2023-04-18T07:15:07.524Z,2.73
2023-04-18T07:16:08.271Z,2.83
2023-04-18T07:17:07.628Z,2.87
2023-04-18T07:18:07.591Z,2.89
2023-04-18T07:19:07.519Z,2.94
2023-04-18T07:20:07.483Z,2.99
2023-04-18T07:21:07.936Z,3.08
2023-04-18T07:22:07.792Z,3.17
2023-04-18T07:23:07.478Z,3.05
2023-04-18T07:24:07.456Z,3.08
2023-04-18T07:25:07.439Z,3.18
2023-04-18T07:26:07.446Z,3.27
2023-04-18T07:27:07.429Z,3.29
2023-04-18T07:28:07.603Z,3.36
2023-04-18T07:29:07.454Z,3.36
2023-04-18T07:30:07.407Z,3.42
2023-04-18T07:31:07.453Z,3.42
2023-04-18T07:32:08.493Z,3.40
2023-04-18T07:33:07.404Z,3.41
2023-04-18T07:34:07.395Z,3.49
2023-04-18T07:35:07.385Z,3.60
2023-04-18T07:36:07.404Z,3.64
2023-04-18T07:37:07.377Z,3.65
2023-04-18T07:38:07.371Z,3.69
2023-04-18T07:39:07.370Z,3.77
2023-04-18T07:40:07.364Z,3.94
2023-04-18T07:41:07.398Z,3.62
2023-04-18T07:42:07.916Z,3.84
2023-04-18T07:43:07.390Z,3.85
2023-04-18T07:44:07.345Z,3.70
2023-04-18T07:45:07.350Z,3.88
2023-04-18T07:46:07.448Z,3.84
2023-04-18T07:47:07.304Z,3.85
2023-04-18T07:48:07.399Z,3.88
2023-04-18T07:49:07.420Z,4.05
2023-04-18T07:50:07.418Z,4.11
2023-04-18T07:51:07.484Z,4.24
2023-04-18T07:52:07.527Z,4.15
2023-04-18T07:53:07.570Z,4.24
2023-04-18T07:54:07.638Z,4.32
2023-04-18T07:55:07.664Z,4.36
2023-04-18T07:56:07.714Z,4.36
2023-04-18T07:57:07.774Z,4.45
2023-04-18T07:58:07.796Z,4.48
2023-04-18T07:59:07.849Z,4.51
2023-04-18T08:00:08.189Z,4.58
2023-04-18T08:01:07.972Z,4.59
2023-04-18T08:02:08.005Z,4.65
2023-04-18T08:03:08.260Z,4.64
2023-04-18T08:04:08.316Z,4.63
2023-04-18T08:05:08.183Z,4.25
2023-04-18T08:06:08.156Z,3.99
2023-04-18T08:07:08.208Z,4.06
2023-04-18T08:08:08.272Z,3.47
2023-04-18T08:09:08.288Z,3.55
2023-04-18T08:10:08.361Z,3.50
2023-04-18T08:11:08.439Z,3.00
2023-04-18T08:12:08.458Z,3.15
2023-04-18T08:13:08.508Z,3.04
2023-04-18T08:14:08.581Z,2.75
2023-04-18T08:15:08.645Z,2.62
2023-04-18T08:16:08.797Z,2.75
2023-04-18T08:17:08.780Z,2.41
2023-04-18T08:18:08.813Z,2.39
2023-04-18T08:19:08.910Z,2.25
2023-04-18T08:20:08.960Z,2.21
2023-04-18T08:21:08.986Z,2.07
2023-04-18T08:22:09.053Z,2.00
2023-04-18T08:23:11.420Z,1.93
2023-04-18T08:24:09.127Z,1.82
2023-04-18T08:25:09.088Z,1.81
2023-04-18T08:26:09.076Z,1.64
2023-04-18T08:27:09.077Z,1.45
2023-04-18T08:28:09.037Z,1.52
2023-04-18T08:29:09.065Z,1.50
2023-04-18T08:30:09.046Z,1.60
2023-04-18T08:31:09.075Z,1.62
2023-04-18T08:32:09.078Z,1.60
2023-04-18T08:33:09.053Z,1.53
2023-04-18T08:34:09.021Z,1.52
2023-04-18T08:35:09.018Z,1.43
2023-04-18T08:36:09.416Z,1.32
2023-04-18T08:37:08.982Z,1.16
2023-04-18T08:38:09.015Z,1.16
2023-04-18T08:39:08.971Z,1.06
2023-04-18T08:40:08.988Z,0.97
2023-04-18T08:41:08.972Z,0.84
2023-04-18T08:42:09.000Z,0.88
2023-04-18T08:43:08.968Z,0.89
2023-04-18T08:44:08.957Z,0.81
2023-04-18T08:45:08.966Z,0.68
2023-04-18T08:46:09.538Z,0.54
2023-04-18T08:47:08.958Z,0.49
2023-04-18T08:48:09.050Z,0.51
2023-04-18T08:49:10.749Z,0.51
2023-04-18T08:50:08.943Z,0.53
2023-04-18T08:51:09.411Z,0.50
2023-04-18T08:52:08.870Z,0.50
2023-04-18T08:53:08.873Z,0.50
2023-04-18T08:54:08.866Z,0.50
2023-04-18T08:55:08.879Z,0.50
2023-04-18T08:56:08.853Z,0.51
2023-04-18T08:57:08.858Z,0.50
2023-04-18T08:58:08.836Z,0.50
2023-04-18T08:59:08.832Z,0.50
2023-04-18T09:00:08.789Z,0.50
2023-04-18T09:01:08.838Z,0.50
2023-04-18T09:02:08.862Z,0.50
2023-04-18T09:03:08.954Z,0.52
2023-04-18T09:04:08.930Z,0.50
2023-04-18T09:05:08.800Z,0.53
2023-04-18T09:06:08.778Z,0.50
2023-04-18T09:07:08.760Z,0.51
2023-04-18T09:08:08.764Z,0.50
2023-04-18T09:09:08.753Z,0.50
2023-04-18T09:10:08.768Z,0.53
2023-04-18T09:11:08.726Z,0.55
2023-04-18T09:12:08.745Z,0.54
2023-04-18T09:13:08.734Z,0.52
2023-04-18T09:14:08.734Z,0.52
2023-04-18T09:15:08.683Z,0.53
2023-04-18T09:16:08.765Z,0.54
2023-04-18T09:17:08.689Z,0.52
2023-04-18T09:18:08.740Z,0.52
2023-04-18T09:19:08.701Z,0.51
2023-04-18T09:20:08.760Z,0.52
2023-04-18T09:21:08.784Z,0.52
2023-04-18T09:22:08.891Z,0.50
2023-04-18T09:23:08.910Z,0.51
2023-04-18T09:24:08.996Z,0.50
2023-04-18T09:25:09.064Z,0.52
2023-04-18T09:26:09.166Z,0.54
2023-04-18T09:27:09.180Z,0.57
2023-04-18T09:28:09.215Z,0.56
2023-04-18T09:29:09.322Z,0.55
2023-04-18T09:30:09.385Z,0.58
2023-04-18T09:31:09.560Z,0.62
2023-04-18T09:32:09.500Z,0.63
2023-04-18T09:33:09.621Z,0.61
2023-04-18T09:34:10.418Z,0.58
2023-04-18T09:35:09.626Z,0.62
2023-04-18T09:36:09.914Z,0.61
2023-04-18T09:37:09.769Z,0.65
2023-04-18T09:38:09.748Z,0.66
2023-04-18T09:39:09.820Z,0.65
2023-04-18T09:40:09.887Z,0.68
2023-04-18T09:41:09.926Z,0.72
2023-04-18T09:42:09.942Z,0.74
2023-04-18T09:43:10.007Z,0.74
2023-04-18T09:44:12.326Z,0.81
2023-04-18T09:45:10.059Z,0.76
2023-04-18T09:46:10.453Z,0.77
2023-04-18T09:47:10.029Z,0.81
2023-04-18T09:48:10.022Z,0.85
2023-04-18T09:49:11.131Z,0.97
2023-04-18T09:50:09.986Z,1.03
2023-04-18T09:51:10.007Z,1.07
2023-04-18T09:52:09.971Z,1.12
2023-04-18T09:53:09.979Z,1.13
2023-04-18T09:54:09.981Z,1.23
2023-04-18T09:55:09.969Z,1.23
2023-04-18T09:56:09.960Z,1.29
2023-04-18T09:57:09.950Z,1.33
2023-04-18T09:58:09.970Z,1.34
2023-04-18T09:59:10.024Z,1.44
2023-04-18T10:00:09.912Z,1.50
2023-04-18T10:01:09.934Z,1.51
2023-04-18T10:02:09.940Z,1.64
2023-04-18T10:03:10.066Z,1.66
2023-04-18T10:04:10.018Z,1.71
2023-04-18T10:05:09.934Z,1.75
2023-04-18T10:06:09.860Z,1.83
2023-04-18T10:07:09.854Z,1.83
2023-04-18T10:08:10.089Z,1.87
2023-04-18T10:09:09.900Z,1.94
2023-04-18T10:10:09.855Z,2.03
2023-04-18T10:11:09.908Z,2.03
2023-04-18T10:12:09.869Z,2.04
2023-04-18T10:13:09.824Z,2.12
2023-04-18T10:14:09.809Z,2.16
2023-04-18T10:15:09.812Z,2.26
2023-04-18T10:16:09.874Z,2.34
2023-04-18T10:17:09.820Z,2.39
2023-04-18T10:18:09.847Z,2.43
2023-04-18T10:19:09.830Z,2.54
2023-04-18T10:20:09.924Z,2.61
2023-04-18T10:21:09.954Z,2.70
2023-04-18T10:22:10.012Z,2.72
2023-04-18T10:23:10.066Z,2.73
2023-04-18T10:24:10.111Z,2.83
2023-04-18T10:25:10.175Z,2.96
2023-04-18T10:26:10.230Z,2.98
2023-04-18T10:27:10.277Z,3.00
2023-04-18T10:28:10.331Z,3.16
2023-04-18T10:29:10.353Z,3.12
2023-04-18T10:30:10.392Z,3.26
2023-04-18T10:31:10.457Z,3.21
2023-04-18T10:32:10.505Z,3.32
2023-04-18T10:33:18.376Z,3.40
2023-04-18T10:34:11.486Z,3.41
2023-04-18T10:35:10.500Z,3.43
2023-04-18T10:36:10.940Z,3.47
2023-04-18T10:37:10.471Z,3.52
2023-04-18T10:38:10.476Z,3.64
2023-04-18T10:39:10.485Z,3.75
2023-04-18T10:40:10.498Z,3.98
2023-04-18T10:41:10.958Z,3.94
2023-04-18T10:42:10.454Z,3.84
2023-04-18T10:43:10.445Z,3.44
2023-04-18T10:44:10.460Z,3.39
2023-04-18T10:45:10.494Z,3.55
2023-04-18T10:46:20.475Z,3.66
2023-04-18T10:47:11.635Z,3.66
2023-04-18T10:48:10.599Z,3.39
2023-04-18T10:49:10.554Z,2.31
2023-04-18T10:50:10.605Z,1.85
2023-04-18T10:51:10.841Z,1.59
2023-04-18T10:52:13.278Z,1.14
2023-04-18T10:53:10.678Z,0.85
2023-04-18T10:54:10.669Z,0.65
2023-04-18T10:55:10.632Z,0.57
2023-04-18T10:56:10.641Z,0.53
2023-04-18T10:57:10.743Z,0.46
2023-04-18T10:58:10.621Z,0.54
2023-04-18T10:59:10.610Z,0.50
2023-04-18T11:00:10.609Z,0.54
2023-04-18T11:01:10.657Z,0.48
2023-04-18T11:02:10.614Z,0.50
2023-04-18T11:03:10.663Z,0.59
2023-04-18T11:04:10.674Z,0.53
2023-04-18T11:05:10.540Z,0.58
2023-04-18T11:06:10.551Z,0.53
2023-04-18T11:07:10.565Z,0.51
2023-04-18T11:08:10.549Z,0.50
2023-04-18T11:09:10.544Z,0.49
2023-04-18T11:10:10.510Z,0.50
2023-04-18T11:11:10.699Z,0.49
2023-04-18T11:12:18.015Z,0.50
2023-04-18T11:13:10.497Z,0.50
2023-04-18T11:14:10.489Z,0.49
2023-04-18T11:15:10.485Z,0.54
2023-04-18T11:16:10.507Z,0.54
2023-04-18T11:17:10.454Z,0.53
2023-04-18T11:18:10.506Z,0.59
2023-04-18T11:19:10.457Z,0.63
2023-04-18T11:20:10.462Z,0.62
2023-04-18T11:21:10.459Z,0.49
2023-04-18T11:22:10.421Z,0.55
2023-04-18T11:23:10.420Z,0.66
2023-04-18T11:24:10.415Z,0.55
2023-04-18T11:25:10.434Z,0.61
2023-04-18T11:26:17.419Z,0.65
2023-04-18T11:27:10.387Z,0.66
2023-04-18T11:28:10.428Z,0.71
2023-04-18T11:29:10.363Z,0.81
2023-04-18T11:30:10.361Z,0.84
2023-04-18T11:31:10.395Z,1.32
2023-04-18T11:32:10.553Z,1.98
2023-04-18T11:33:10.473Z,2.16
2023-04-18T11:34:10.372Z,2.26
2023-04-18T11:35:10.375Z,2.06
2023-04-18T11:36:10.333Z,2.33
2023-04-18T11:37:10.650Z,2.57
2023-04-18T11:38:10.324Z,2.67
2023-04-18T11:39:10.326Z,2.69
2023-04-18T11:40:10.288Z,2.66
2023-04-18T11:41:10.341Z,2.66
2023-04-18T11:42:10.307Z,2.75
2023-04-18T11:43:10.287Z,2.94
2023-04-18T11:44:10.286Z,2.96
2023-04-18T11:45:10.278Z,2.95
2023-04-18T11:46:10.314Z,2.97
2023-04-18T11:47:10.273Z,2.88
2023-04-18T11:48:10.260Z,2.94
2023-04-18T11:49:10.265Z,2.94
2023-04-18T11:50:10.244Z,2.91
2023-04-18T11:51:10.216Z,2.63
2023-04-18T11:52:10.249Z,2.62
2023-04-18T11:53:10.225Z,2.55
2023-04-18T11:54:10.216Z,2.67
2023-04-18T11:55:10.168Z,2.64
2023-04-18T11:56:10.191Z,2.48
2023-04-18T11:57:10.527Z,2.48
2023-04-18T11:58:10.184Z,2.66
2023-04-18T11:59:10.167Z,2.66
2023-04-18T12:00:10.241Z,2.37
2023-04-18T12:01:10.174Z,2.33
2023-04-18T12:03:13.333Z,2.12
2023-04-18T12:04:10.293Z,2.33
2023-04-18T12:05:10.342Z,2.34
2023-04-18T12:06:10.126Z,2.35
2023-04-18T12:07:10.140Z,2.38
2023-04-18T12:08:10.120Z,1.98
2023-04-18T12:09:10.077Z,2.17
2023-04-18T12:10:10.142Z,2.05
2023-04-18T12:11:10.080Z,2.13
2023-04-18T12:12:10.069Z,2.10
2023-04-18T12:13:10.055Z,1.92
2023-04-18T12:14:10.096Z,1.91
2023-04-18T12:15:10.059Z,1.91
2023-04-18T12:16:10.058Z,1.93
2023-04-18T12:17:10.045Z,2.13
2023-04-18T12:18:10.056Z,2.26
2023-04-18T12:19:10.043Z,2.27
2023-04-18T12:20:10.030Z,2.32
2023-04-18T12:21:10.035Z,2.30
2023-04-18T12:22:10.044Z,2.29
2023-04-18T12:23:09.979Z,2.33
2023-04-18T12:24:09.961Z,2.35
2023-04-18T12:25:09.992Z,2.37
2023-04-18T12:26:09.970Z,2.50
2023-04-18T12:27:09.975Z,2.52
2023-04-18T12:28:09.939Z,2.64
2023-04-18T12:29:09.936Z,2.78
2023-04-18T12:30:09.952Z,2.77
2023-04-18T12:31:09.997Z,2.88
2023-04-18T12:32:09.941Z,2.90
2023-04-18T12:33:09.919Z,2.95
2023-04-18T12:34:09.902Z,2.98
2023-04-18T12:35:09.943Z,3.04
2023-04-18T12:36:09.909Z,3.06
2023-04-18T12:37:09.898Z,3.05
2023-04-18T12:38:09.893Z,3.13
2023-04-18T12:39:09.862Z,3.14
2023-04-18T12:40:09.859Z,3.23
2023-04-18T12:41:09.864Z,3.21
2023-04-18T12:42:09.850Z,3.20
2023-04-18T12:43:09.867Z,3.24
2023-04-18T12:44:09.857Z,3.21
2023-04-18T12:45:09.865Z,3.23
2023-04-18T12:46:09.885Z,3.23
2023-04-18T12:47:09.893Z,3.25
2023-04-18T12:48:09.961Z,3.34
2023-04-18T12:49:09.790Z,3.29
2023-04-18T12:50:11.314Z,3.34
2023-04-18T12:51:09.768Z,3.41
2023-04-18T12:52:09.795Z,3.48
2023-04-18T12:53:09.771Z,3.50
2023-04-18T12:54:09.767Z,3.48
2023-04-18T12:55:09.738Z,3.54
2023-04-18T12:56:09.750Z,3.52
2023-04-18T12:57:09.838Z,3.61
2023-04-18T12:58:09.867Z,3.55
2023-04-18T12:59:09.885Z,3.56
2023-04-18T13:00:09.971Z,3.62
2023-04-18T13:01:10.084Z,3.62
2023-04-18T13:02:10.241Z,3.64
2023-04-18T13:03:12.962Z,3.58
2023-04-18T13:04:13.047Z,3.73
2023-04-18T13:05:10.137Z,3.74
2023-04-18T13:06:10.122Z,3.73
2023-04-18T13:07:10.115Z,3.70
2023-04-18T13:08:16.791Z,3.76
2023-04-18T13:09:11.189Z,3.74
2023-04-18T13:10:10.097Z,3.75
2023-04-18T13:11:10.072Z,3.77
2023-04-18T13:12:10.070Z,3.77
2023-04-18T13:13:10.055Z,3.80
2023-04-18T13:14:10.062Z,3.76
2023-04-18T13:15:10.060Z,3.73
2023-04-18T13:16:10.079Z,3.78
2023-04-18T13:17:10.114Z,3.75
2023-04-18T13:18:10.124Z,3.74
2023-04-18T13:19:10.228Z,3.82
2023-04-18T13:20:10.270Z,3.76